Time;durP1;ratioP1;P1;durP2;ratioP2;P2;SDS_P1;SDS_P2;PMS_P1;PMS_P2;Temp;Humidity;BMP_temperature;BMP_pressure;BME280_temperature;BME280_humidity;BME280_pressure;Samples;Min_cycle;Max_cycle;Signal;HPM_P1;HPM_P2
2023/08/23 00:00:33;;;;;;;13.65;10.02;;;;;;;;;;6260092;27;20205;-66
2023/08/23 00:03:36;;;;;;;13.50;11.90;;;;;;;;;;6250902;27;20067;-68
2023/08/23 00:06:38;;;;;;;13.07;9.52;;;;;;;;;;6248818;28;20271;-66
2023/08/23 00:09:40;;;;;;;14.00;12.15;;;;;;;;;;6259257;27;20119;-68
2023/08/23 00:12:42;;;;;;;12.52;9.70;;;;;;;;;;6256579;27;20056;-67
2023/08/23 00:15:44;;;;;;;13.65;9.88;;;;;;;;;;6259697;27;20052;-67
2023/08/23 00:18:46;;;;;;;12.30;10.25;;;;;;;;;;6273351;27;20095;-67
2023/08/23 00:21:48;;;;;;;12.07;9.50;;;;;;;;;;6259585;27;20100;-67
2023/08/23 00:24:50;;;;;;;12.10;10.20;;;;;;;;;;6253872;27;20590;-67
2023/08/23 00:27:52;;;;;;;14.85;10.68;;;;;;;;;;6256901;27;20060;-67
2023/08/23 00:31:13;;;;;;;11.93;9.95;;;;;;;;;;6270589;27;20436;-67
2023/08/23 00:34:16;;;;;;;13.88;10.57;;;;;;;;;;6296613;27;20046;-67
2023/08/23 00:37:18;;;;;;;15.38;12.88;;;;;;;;;;6285795;27;20040;-67
2023/08/23 00:40:20;;;;;;;14.45;9.73;;;;;;;;;;6319187;27;20041;-67
2023/08/23 00:43:23;;;;;;;14.65;13.13;;;;;;;;;;6252467;27;20116;-66
2023/08/23 00:46:25;;;;;;;15.70;14.00;;;;;;;;;;6259652;27;20060;-66
2023/08/23 00:49:33;;;;;;;18.02;13.82;;;;;;;;;;6263259;27;20091;-66
2023/08/23 00:52:36;;;;;;;14.90;13.30;;;;;;;;;;6246630;27;20373;-66
2023/08/23 00:55:54;;;;;;;14.38;12.68;;;;;;;;;;6270377;27;20842;-67
2023/08/23 00:58:58;;;;;;;12.68;11.25;;;;;;;;;;6250124;27;20049;-66
2023/08/23 01:02:00;;;;;;;13.27;10.95;;;;;;;;;;6277571;27;20479;-67
2023/08/23 01:05:02;;;;;;;17.63;12.75;;;;;;;;;;6270452;27;20131;-66
2023/08/23 01:08:16;;;;;;;15.20;10.00;;;;;;;;;;6258346;27;20048;-67
2023/08/23 01:11:21;;;;;;;14.00;10.32;;;;;;;;;;6331715;27;20447;-66
2023/08/23 01:14:51;;;;;;;13.70;11.88;;;;;;;;;;6248040;27;20549;-67
2023/08/23 01:17:54;;;;;;;12.27;9.75;;;;;;;;;;6252202;27;20458;-67
2023/08/23 01:20:57;;;;;;;13.70;10.65;;;;;;;;;;6279667;27;20052;-67
2023/08/23 01:24:08;;;;;;;17.20;11.27;;;;;;;;;;6260643;27;20045;-66
2023/08/23 01:27:11;;;;;;;12.73;10.55;;;;;;;;;;6272659;27;20051;-67
2023/08/23 01:30:14;;;;;;;16.45;13.63;;;;;;;;;;6256383;27;20048;-67
2023/08/23 01:33:22;;;;;;;13.00;10.20;;;;;;;;;;6257115;27;20045;-67
2023/08/23 01:36:28;;;;;;;14.50;11.55;;;;;;;;;;6258442;27;20605;-66
2023/08/23 01:39:30;;;;;;;16.05;12.13;;;;;;;;;;6232514;27;20459;-66
2023/08/23 01:42:33;;;;;;;15.07;11.45;;;;;;;;;;6258856;27;20043;-66
2023/08/23 01:45:35;;;;;;;15.82;10.40;;;;;;;;;;6254071;27;20057;-67
2023/08/23 01:48:37;;;;;;;14.60;10.50;;;;;;;;;;6287020;27;20129;-67
2023/08/23 01:51:39;;;;;;;15.70;13.75;;;;;;;;;;6279444;27;20049;-67
2023/08/23 01:54:41;;;;;;;13.63;10.38;;;;;;;;;;6286497;27;20115;-67
2023/08/23 01:57:44;;;;;;;14.85;11.38;;;;;;;;;;6243856;27;20740;-67
2023/08/23 02:00:47;;;;;;;13.77;10.57;;;;;;;;;;6236845;27;20495;-67
2023/08/23 02:03:49;;;;;;;17.13;15.50;;;;;;;;;;6331889;27;20060;-67
2023/08/23 02:06:51;;;;;;;14.48;10.43;;;;;;;;;;6245572;27;20056;-66
2023/08/23 02:09:53;;;;;;;13.65;10.13;;;;;;;;;;6265656;27;20049;-67
2023/08/23 02:12:55;;;;;;;13.07;10.93;;;;;;;;;;6225831;27;20044;-67
2023/08/23 02:15:58;;;;;;;13.90;11.45;;;;;;;;;;6265273;27;20489;-67
2023/08/23 02:19:00;;;;;;;12.75;9.80;;;;;;;;;;6239494;28;20041;-67
2023/08/23 02:22:02;;;;;;;19.40;14.18;;;;;;;;;;6265698;27;20464;-67
2023/08/23 02:25:04;;;;;;;14.50;12.35;;;;;;;;;;6259206;27;20226;-67
2023/08/23 02:28:06;;;;;;;16.85;11.05;;;;;;;;;;6257457;27;20045;-67
2023/08/23 02:31:09;;;;;;;14.43;11.00;;;;;;;;;;6293823;27;20053;-67
2023/08/23 02:34:11;;;;;;;17.63;14.55;;;;;;;;;;6257098;27;20056;-66
2023/08/23 02:37:13;;;;;;;16.63;10.65;;;;;;;;;;6270471;27;20035;-67
2023/08/23 02:40:15;;;;;;;13.35;11.48;;;;;;;;;;6257235;27;20060;-67
2023/08/23 02:43:18;;;;;;;17.08;11.88;;;;;;;;;;6262023;27;20042;-67
2023/08/23 02:46:20;;;;;;;15.25;10.77;;;;;;;;;;6247643;27;20134;-68
2023/08/23 02:49:22;;;;;;;14.23;10.70;;;;;;;;;;6282941;27;20125;-67
2023/08/23 02:52:24;;;;;;;13.02;10.98;;;;;;;;;;6251557;27;20048;-67
2023/08/23 02:55:26;;;;;;;16.10;11.35;;;;;;;;;;6261388;27;20072;-67
2023/08/23 02:58:28;;;;;;;14.27;10.18;;;;;;;;;;6282597;27;20658;-67
2023/08/23 03:01:30;;;;;;;14.98;10.70;;;;;;;;;;6253505;27;20079;-67
2023/08/23 03:04:32;;;;;;;20.42;13.63;;;;;;;;;;6246311;28;20049;-67
2023/08/23 03:07:34;;;;;;;16.98;11.05;;;;;;;;;;6261022;27;20056;-68
2023/08/23 03:10:36;;;;;;;15.82;13.65;;;;;;;;;;6259483;27;20692;-67
2023/08/23 03:13:38;;;;;;;13.55;11.23;;;;;;;;;;6260030;27;20048;-67
2023/08/23 03:16:40;;;;;;;17.27;11.18;;;;;;;;;;6297749;27;20049;-67
2023/08/23 03:19:42;;;;;;;15.68;12.32;;;;;;;;;;6250963;27;20060;-68
2023/08/23 03:22:44;;;;;;;13.88;11.10;;;;;;;;;;6274061;27;20136;-68
2023/08/23 03:25:48;;;;;;;16.13;11.82;;;;;;;;;;6255896;28;20041;-68
2023/08/23 03:28:52;;;;;;;14.20;12.02;;;;;;;;;;6252568;27;20049;-68
2023/08/23 03:31:54;;;;;;;12.88;10.48;;;;;;;;;;6261151;28;20045;-68
2023/08/23 03:34:57;;;;;;;13.30;10.75;;;;;;;;;;6261635;27;20053;-69
2023/08/23 03:37:59;;;;;;;16.50;11.93;;;;;;;;;;6262077;27;20037;-68
2023/08/23 03:41:01;;;;;;;16.35;11.38;;;;;;;;;;6297378;27;20136;-68
2023/08/23 03:44:03;;;;;;;16.30;11.65;;;;;;;;;;6260319;27;20053;-68
2023/08/23 03:47:06;;;;;;;15.82;12.55;;;;;;;;;;6260577;27;20045;-68
2023/08/23 03:50:08;;;;;;;14.57;10.95;;;;;;;;;;6330183;27;20056;-68
2023/08/23 03:53:10;;;;;;;14.23;11.05;;;;;;;;;;6253645;27;20048;-67
2023/08/23 03:56:13;;;;;;;15.80;11.70;;;;;;;;;;6317092;27;20056;-67
2023/08/23 03:59:15;;;;;;;15.93;11.30;;;;;;;;;;6253456;27;20053;-67
2023/08/23 04:02:17;;;;;;;16.65;12.70;;;;;;;;;;6251934;27;20642;-67
2023/08/23 04:05:19;;;;;;;15.43;11.07;;;;;;;;;;6260299;27;20514;-66
2023/08/23 04:08:21;;;;;;;14.90;11.38;;;;;;;;;;6245343;28;20476;-66
2023/08/23 04:11:23;;;;;;;19.27;14.52;;;;;;;;;;6253402;28;20091;-68
2023/08/23 04:14:25;;;;;;;15.73;11.70;;;;;;;;;;6294606;27;20547;-68
2023/08/23 04:17:27;;;;;;;15.35;13.30;;;;;;;;;;6271951;27;20419;-68
2023/08/23 04:20:29;;;;;;;19.30;12.55;;;;;;;;;;6264240;27;20049;-67
2023/08/23 04:23:31;;;;;;;15.10;10.88;;;;;;;;;;6273241;27;20052;-68
2023/08/23 04:26:33;;;;;;;16.08;11.10;;;;;;;;;;6241327;28;20080;-67
2023/08/23 04:29:36;;;;;;;13.55;11.07;;;;;;;;;;6257875;27;20045;-68
2023/08/23 04:32:38;;;;;;;14.68;11.35;;;;;;;;;;6260574;27;20049;-67
2023/08/23 04:35:40;;;;;;;16.25;13.25;;;;;;;;;;6289094;27;20931;-67
2023/08/23 04:38:42;;;;;;;15.15;11.73;;;;;;;;;;6264119;27;20051;-66
2023/08/23 04:41:45;;;;;;;16.92;12.45;;;;;;;;;;6260933;27;20056;-66
2023/08/23 04:44:49;;;;;;;15.93;11.82;;;;;;;;;;6249598;27;20049;-67
2023/08/23 04:47:51;;;;;;;18.75;15.55;;;;;;;;;;6282839;27;20737;-67
2023/08/23 04:50:55;;;;;;;15.45;11.63;;;;;;;;;;6256826;27;20197;-67
2023/08/23 04:53:57;;;;;;;17.73;11.73;;;;;;;;;;6309459;27;20052;-67
2023/08/23 04:57:00;;;;;;;18.40;11.63;;;;;;;;;;6259506;27;20144;-67
2023/08/23 05:00:08;;;;;;;15.30;11.52;;;;;;;;;;6312427;27;20158;-66
2023/08/23 05:03:11;;;;;;;15.63;12.55;;;;;;;;;;6246775;27;20056;-67
2023/08/23 05:06:14;;;;;;;16.83;12.85;;;;;;;;;;6289270;27;20072;-68
2023/08/23 05:09:16;;;;;;;16.17;12.32;;;;;;;;;;6240055;28;20143;-67
2023/08/23 05:12:19;;;;;;;19.17;13.90;;;;;;;;;;6258013;27;20041;-67
2023/08/23 05:15:22;;;;;;;15.02;12.20;;;;;;;;;;6274009;27;20087;-67
2023/08/23 05:18:24;;;;;;;18.92;12.48;;;;;;;;;;6279204;27;20038;-67
2023/08/23 05:21:26;;;;;;;17.27;14.38;;;;;;;;;;6266662;27;20045;-67
2023/08/23 05:24:30;;;;;;;15.75;14.05;;;;;;;;;;6253879;27;20049;-67
2023/08/23 05:27:33;;;;;;;18.73;14.23;;;;;;;;;;6275767;27;20642;-66
2023/08/23 05:30:38;;;;;;;16.15;14.45;;;;;;;;;;6264604;27;20060;-66
2023/08/23 05:33:43;;;;;;;14.65;12.43;;;;;;;;;;6295910;27;20198;-65
2023/08/23 05:36:46;;;;;;;15.63;12.57;;;;;;;;;;6260314;27;20045;-66
2023/08/23 05:39:48;;;;;;;17.02;13.88;;;;;;;;;;6259228;27;20541;-65
2023/08/23 05:42:50;;;;;;;16.98;10.55;;;;;;;;;;6255175;27;20131;-67
2023/08/23 05:45:54;;;;;;;16.15;13.30;;;;;;;;;;6270845;27;20049;-66
2023/08/23 05:48:58;;;;;;;17.65;10.70;;;;;;;;;;6260494;27;20045;-66
2023/08/23 05:52:00;;;;;;;15.20;11.13;;;;;;;;;;6265438;27;20069;-68
2023/08/23 05:55:02;;;;;;;14.27;11.15;;;;;;;;;;6266044;27;20044;-65
2023/08/23 05:58:04;;;;;;;13.43;11.32;;;;;;;;;;6263000;27;20098;-65
2023/08/23 06:01:06;;;;;;;14.38;10.10;;;;;;;;;;6309745;27;20041;-67
2023/08/23 06:04:08;;;;;;;13.18;11.45;;;;;;;;;;6269740;27;20049;-66
2023/08/23 06:07:10;;;;;;;16.45;10.95;;;;;;;;;;6272844;27;20189;-65
2023/08/23 06:10:12;;;;;;;15.88;10.98;;;;;;;;;;6270402;27;20045;-66
2023/08/23 06:13:15;;;;;;;12.88;9.75;;;;;;;;;;6294272;27;20138;-66
2023/08/23 06:16:17;;;;;;;13.90;12.48;;;;;;;;;;6282872;27;20721;-64
2023/08/23 06:19:19;;;;;;;15.75;9.48;;;;;;;;;;6275408;27;20045;-65
2023/08/23 06:22:22;;;;;;;12.82;10.15;;;;;;;;;;6265773;27;20048;-65
2023/08/23 06:25:24;;;;;;;13.88;10.32;;;;;;;;;;6288285;27;20456;-66
2023/08/23 06:28:27;;;;;;;16.02;9.45;;;;;;;;;;6272371;27;20102;-66
2023/08/23 06:31:30;;;;;;;13.18;9.00;;;;;;;;;;6262241;27;20049;-66
2023/08/23 06:34:32;;;;;;;12.45;9.75;;;;;;;;;;6287709;27;20053;-66
2023/08/23 06:37:34;;;;;;;11.32;9.75;;;;;;;;;;6269067;27;20061;-66
2023/08/23 06:40:40;;;;;;;12.27;9.90;;;;;;;;;;6270401;27;20206;-67
2023/08/23 06:43:43;;;;;;;14.85;10.50;;;;;;;;;;6296373;27;20043;-66
2023/08/23 06:46:45;;;;;;;10.73;9.23;;;;;;;;;;6260218;27;20052;-66
2023/08/23 06:49:47;;;;;;;11.02;9.23;;;;;;;;;;6256453;27;20163;-67
2023/08/23 06:52:49;;;;;;;14.85;9.77;;;;;;;;;;6260276;27;20695;-67
2023/08/23 06:55:51;;;;;;;12.07;8.90;;;;;;;;;;6260083;27;20056;-67
2023/08/23 06:58:53;;;;;;;11.45;9.30;;;;;;;;;;6264868;27;20041;-67
2023/08/23 07:01:55;;;;;;;14.07;9.13;;;;;;;;;;6254835;27;20534;-67
2023/08/23 07:04:58;;;;;;;10.65;9.10;;;;;;;;;;6293130;27;20041;-69
2023/08/23 07:08:00;;;;;;;12.88;9.32;;;;;;;;;;6274235;27;20049;-67
2023/08/23 07:11:03;;;;;;;13.45;9.82;;;;;;;;;;6292907;27;20485;-69
2023/08/23 07:14:06;;;;;;;11.13;8.82;;;;;;;;;;6259153;27;20045;-68
2023/08/23 07:17:08;;;;;;;11.10;8.55;;;;;;;;;;6267035;27;20052;-67
2023/08/23 07:20:13;;;;;;;11.93;9.43;;;;;;;;;;6306582;27;20054;-69
2023/08/23 07:23:15;;;;;;;11.07;7.82;;;;;;;;;;6297036;27;20056;-68
2023/08/23 07:26:17;;;;;;;10.68;8.85;;;;;;;;;;6261076;27;20080;-68
2023/08/23 07:29:19;;;;;;;10.27;8.00;;;;;;;;;;6261946;27;20097;-67
2023/08/23 07:32:21;;;;;;;10.80;9.15;;;;;;;;;;6271121;27;20048;-68
2023/08/23 07:35:23;;;;;;;10.80;9.05;;;;;;;;;;6247323;27;20511;-69
2023/08/23 07:38:27;;;;;;;9.43;8.43;;;;;;;;;;6292651;27;20045;-68
2023/08/23 07:41:30;;;;;;;11.73;8.80;;;;;;;;;;6250039;27;20038;-67
2023/08/23 07:44:32;;;;;;;15.40;9.10;;;;;;;;;;6253350;27;20051;-67
2023/08/23 07:47:34;;;;;;;9.18;8.25;;;;;;;;;;6258080;27;20056;-67
2023/08/23 07:50:37;;;;;;;9.80;8.15;;;;;;;;;;6250745;27;20037;-68
2023/08/23 07:53:41;;;;;;;11.68;8.32;;;;;;;;;;6264737;27;20049;-70
2023/08/23 07:56:44;;;;;;;11.00;8.82;;;;;;;;;;6267945;27;20053;-68
2023/08/23 07:59:46;;;;;;;16.88;8.65;;;;;;;;;;6297469;27;20061;-68
2023/08/23 08:02:48;;;;;;;9.60;7.97;;;;;;;;;;6260090;27;20125;-67
2023/08/23 08:05:50;;;;;;;10.85;9.35;;;;;;;;;;6252920;27;20677;-68
2023/08/23 08:08:52;;;;;;;9.95;8.35;;;;;;;;;;6264834;27;20049;-69
2023/08/23 08:11:54;;;;;;;11.55;9.95;;;;;;;;;;6246224;27;20053;-68
2023/08/23 08:14:56;;;;;;;10.82;8.13;;;;;;;;;;6252889;27;20617;-69
2023/08/23 08:17:58;;;;;;;11.32;8.95;;;;;;;;;;6244932;27;20069;-69
2023/08/23 08:21:01;;;;;;;9.60;7.55;;;;;;;;;;6264279;27;20049;-69
2023/08/23 08:24:03;;;;;;;12.57;9.82;;;;;;;;;;6268901;27;20042;-69
2023/08/23 08:27:05;;;;;;;9.30;8.02;;;;;;;;;;6257597;27;20204;-68
2023/08/23 08:30:07;;;;;;;10.73;8.98;;;;;;;;;;6258882;27;20056;-70
2023/08/23 08:33:09;;;;;;;9.05;7.68;;;;;;;;;;6268952;27;20045;-69
2023/08/23 08:36:12;;;;;;;11.38;7.25;;;;;;;;;;6267992;27;20043;-69
2023/08/23 08:39:14;;;;;;;10.43;7.32;;;;;;;;;;6298217;27;20078;-69
2023/08/23 08:42:17;;;;;;;9.05;6.90;;;;;;;;;;6319996;27;20121;-69
2023/08/23 08:45:20;;;;;;;9.48;6.95;;;;;;;;;;6258498;27;20116;-69
2023/08/23 08:48:22;;;;;;;8.90;7.03;;;;;;;;;;6257201;27;20113;-69
2023/08/23 08:51:24;;;;;;;7.63;6.60;;;;;;;;;;6257049;27;20059;-69
2023/08/23 08:54:27;;;;;;;10.52;6.57;;;;;;;;;;6257925;27;20072;-69
2023/08/23 08:57:30;;;;;;;11.63;6.72;;;;;;;;;;6243950;27;20161;-69
2023/08/23 09:00:33;;;;;;;8.15;6.45;;;;;;;;;;6287562;27;20216;-69
2023/08/23 09:03:36;;;;;;;9.27;6.13;;;;;;;;;;6264616;27;20048;-69
2023/08/23 09:06:38;;;;;;;7.80;5.90;;;;;;;;;;6256778;27;20045;-69
2023/08/23 09:24:54;;;;;;;8.38;7.57;;;;;;;;;;6357676;27;20761;-67
2023/08/23 09:27:56;;;;;;;8.63;7.82;;;;;;;;;;6347394;28;20047;-67
2023/08/23 09:30:59;;;;;;;9.20;8.27;;;;;;;;;;6306047;28;20059;-68
2023/08/23 09:34:01;;;;;;;9.23;8.32;;;;;;;;;;6329492;28;20051;-66
2023/08/23 09:37:07;;;;;;;8.85;7.95;;;;;;;;;;6334568;28;20074;-67
2023/08/23 09:40:16;;;;;;;8.75;7.85;;;;;;;;;;6331603;28;20058;-68
2023/08/23 09:43:20;;;;;;;9.48;8.25;;;;;;;;;;6332135;28;20140;-68
2023/08/23 09:46:25;;;;;;;7.75;5.63;;;;;;;;;;6331442;28;20649;-67
2023/08/23 09:49:31;;;;;;;10.15;9.20;;;;;;;;;;6336521;28;20047;-67
2023/08/23 09:52:35;;;;;;;10.00;8.38;;;;;;;;;;6331563;28;20040;-68
2023/08/23 09:55:38;;;;;;;8.75;7.85;;;;;;;;;;6334200;28;20059;-67
2023/08/23 09:58:40;;;;;;;6.85;5.80;;;;;;;;;;6315231;28;20411;-67
2023/08/23 10:01:42;;;;;;;9.38;7.90;;;;;;;;;;6323466;28;20051;-68
2023/08/23 10:04:44;;;;;;;8.50;7.60;;;;;;;;;;6316864;28;20054;-67
2023/08/23 10:07:47;;;;;;;8.88;7.68;;;;;;;;;;6343693;28;20124;-67
2023/08/23 10:10:50;;;;;;;10.40;8.68;;;;;;;;;;6352887;28;20138;-67
2023/08/23 10:13:52;;;;;;;9.20;8.23;;;;;;;;;;6311058;28;20130;-67
2023/08/23 10:16:55;;;;;;;9.00;7.30;;;;;;;;;;6345718;28;20039;-67
2023/08/23 10:19:57;;;;;;;9.60;7.97;;;;;;;;;;6332478;28;20044;-67
2023/08/23 10:22:59;;;;;;;8.32;7.35;;;;;;;;;;6293864;28;20044;-68
2023/08/23 10:26:02;;;;;;;8.48;7.60;;;;;;;;;;6315695;28;20124;-66
2023/08/23 10:29:09;;;;;;;22.33;10.95;;;;;;;;;;6323120;28;20185;-66
2023/08/23 10:32:11;;;;;;;15.18;10.90;;;;;;;;;;6326314;28;20164;-67
2023/08/23 10:35:27;;;;;;;14.60;10.75;;;;;;;;;;6324286;28;20181;-66
2023/08/23 10:38:29;;;;;;;14.52;9.57;;;;;;;;;;6318544;28;20131;-67
2023/08/23 10:41:31;;;;;;;9.68;7.55;;;;;;;;;;6308510;28;20048;-66
2023/08/23 10:44:43;;;;;;;10.93;7.15;;;;;;;;;;6305100;28;20067;-67
2023/08/23 10:47:49;;;;;;;9.18;6.35;;;;;;;;;;6321462;28;20130;-67
2023/08/23 10:50:53;;;;;;;9.68;8.50;;;;;;;;;;6314564;28;20048;-67
2023/08/23 10:53:56;;;;;;;9.35;7.53;;;;;;;;;;6314948;28;20645;-67
2023/08/23 10:56:58;;;;;;;8.63;6.88;;;;;;;;;;6300448;28;20046;-67
2023/08/23 11:00:00;;;;;;;14.02;7.25;;;;;;;;;;6327825;28;20131;-67
2023/08/23 11:03:04;;;;;;;11.65;6.35;;;;;;;;;;6313483;28;20051;-66
2023/08/23 11:06:06;;;;;;;9.82;7.03;;;;;;;;;;6299839;28;20217;-65
2023/08/23 11:09:08;;;;;;;10.35;9.32;;;;;;;;;;6314174;28;20043;-66
2023/08/23 11:12:10;;;;;;;9.00;7.57;;;;;;;;;;6318623;28;20055;-65
2023/08/23 11:15:12;;;;;;;9.90;6.53;;;;;;;;;;6320319;28;20429;-66
2023/08/23 11:18:15;;;;;;;9.07;7.35;;;;;;;;;;6327163;28;20044;-66
2023/08/23 11:21:17;;;;;;;8.65;7.78;;;;;;;;;;6315479;28;20958;-66
2023/08/23 11:24:19;;;;;;;9.52;7.32;;;;;;;;;;6314265;28;20514;-66
2023/08/23 11:27:21;;;;;;;10.75;8.10;;;;;;;;;;6319263;28;20040;-66
2023/08/23 11:30:23;;;;;;;9.77;7.72;;;;;;;;;;6314019;28;20078;-66
2023/08/23 11:33:26;;;;;;;10.60;7.43;;;;;;;;;;6289601;28;20102;-66
2023/08/23 11:36:31;;;;;;;8.90;7.43;;;;;;;;;;6312043;28;20247;-66
2023/08/23 11:39:33;;;;;;;9.45;7.55;;;;;;;;;;6326229;27;20116;-66
2023/08/23 11:42:36;;;;;;;9.98;8.63;;;;;;;;;;6312911;28;21155;-65
2023/08/23 11:45:38;;;;;;;11.23;8.02;;;;;;;;;;6318208;28;20131;-64
2023/08/23 11:48:40;;;;;;;12.48;9.15;;;;;;;;;;6324108;28;20143;-65
2023/08/23 11:51:46;;;;;;;11.73;10.52;;;;;;;;;;6324754;28;20453;-66
2023/08/23 11:54:52;;;;;;;12.05;9.27;;;;;;;;;;6311191;28;20713;-66
2023/08/23 11:57:54;;;;;;;9.52;8.55;;;;;;;;;;6313578;28;20059;-66
2023/08/23 12:00:57;;;;;;;9.52;8.52;;;;;;;;;;6303655;28;20074;-64
2023/08/23 12:03:59;;;;;;;8.10;7.30;;;;;;;;;;6309481;28;20040;-65
2023/08/23 12:07:02;;;;;;;6.95;4.85;;;;;;;;;;6311411;28;20449;-66
2023/08/23 12:10:08;;;;;;;8.68;4.43;;;;;;;;;;6307987;28;20329;-65
2023/08/23 12:13:12;;;;;;;8.07;6.07;;;;;;;;;;6312043;28;20075;-66
2023/08/23 12:16:14;;;;;;;7.80;7.00;;;;;;;;;;6310007;28;20059;-65
2023/08/23 12:19:17;;;;;;;8.95;5.85;;;;;;;;;;6305588;28;20036;-66
2023/08/23 12:22:32;;;;;;;7.25;6.03;;;;;;;;;;6306370;28;20047;-66
2023/08/23 12:25:34;;;;;;;8.32;7.53;;;;;;;;;;6310233;28;20051;-65
2023/08/23 12:28:37;;;;;;;7.47;6.32;;;;;;;;;;6310058;28;20450;-66
2023/08/23 12:31:39;;;;;;;8.82;6.68;;;;;;;;;;6311482;28;20085;-66
2023/08/23 12:34:41;;;;;;;8.15;7.35;;;;;;;;;;6310181;28;20048;-65
2023/08/23 12:37:43;;;;;;;7.55;6.72;;;;;;;;;;6315781;28;20047;-65
2023/08/23 12:40:46;;;;;;;7.95;7.07;;;;;;;;;;6315402;28;20545;-66
2023/08/23 12:43:48;;;;;;;7.88;7.07;;;;;;;;;;6301965;28;20056;-66
2023/08/23 12:46:50;;;;;;;8.80;7.70;;;;;;;;;;6308962;28;20044;-65
2023/08/23 12:49:52;;;;;;;9.18;8.38;;;;;;;;;;6309592;28;20109;-66
2023/08/23 12:52:54;;;;;;;7.93;6.97;;;;;;;;;;6319803;28;20047;-65
2023/08/23 12:55:56;;;;;;;7.50;6.78;;;;;;;;;;6290284;28;20627;-66
2023/08/23 12:58:58;;;;;;;9.13;8.05;;;;;;;;;;6311502;28;20577;-66
2023/08/23 13:02:00;;;;;;;14.85;10.10;;;;;;;;;;6307835;28;20036;-66
2023/08/23 13:05:03;;;;;;;10.20;9.20;;;;;;;;;;6309024;28;20040;-66
2023/08/23 13:08:05;;;;;;;11.68;7.18;;;;;;;;;;6307498;28;20050;-66
2023/08/23 13:11:07;;;;;;;8.98;7.75;;;;;;;;;;6307629;28;20710;-65
2023/08/23 13:14:09;;;;;;;8.18;7.07;;;;;;;;;;6311203;28;20044;-65
2023/08/23 13:17:11;;;;;;;8.38;7.57;;;;;;;;;;6320415;28;20051;-66
2023/08/23 13:20:14;;;;;;;9.38;8.43;;;;;;;;;;6308073;28;20649;-65
2023/08/23 13:23:16;;;;;;;8.02;7.07;;;;;;;;;;6318787;28;20043;-66
2023/08/23 13:26:18;;;;;;;10.05;7.93;;;;;;;;;;6307104;28;20048;-66
2023/08/23 13:29:20;;;;;;;8.52;7.72;;;;;;;;;;6308319;28;20040;-66
2023/08/23 13:32:23;;;;;;;9.82;8.90;;;;;;;;;;6307885;28;20058;-66
2023/08/23 13:35:28;;;;;;;9.55;8.65;;;;;;;;;;6309926;28;20044;-66
2023/08/23 13:38:30;;;;;;;7.80;6.47;;;;;;;;;;6309117;28;20430;-66
2023/08/23 13:41:33;;;;;;;8.90;7.95;;;;;;;;;;6322729;28;20056;-67
2023/08/23 13:44:35;;;;;;;7.13;6.50;;;;;;;;;;6309162;28;20040;-66
2023/08/23 13:47:37;;;;;;;8.80;7.40;;;;;;;;;;6306157;28;20059;-66
2023/08/23 13:50:40;;;;;;;8.82;7.97;;;;;;;;;;6310246;28;20044;-66
2023/08/23 13:53:45;;;;;;;8.43;7.63;;;;;;;;;;6311179;28;20549;-66
2023/08/23 13:56:48;;;;;;;9.40;8.57;;;;;;;;;;6309230;28;20051;-66
2023/08/23 13:59:50;;;;;;;8.15;7.35;;;;;;;;;;6310150;28;20086;-66
2023/08/23 14:02:52;;;;;;;7.65;6.95;;;;;;;;;;6313765;28;20097;-67
2023/08/23 14:06:01;;;;;;;7.47;6.68;;;;;;;;;;6300021;28;20087;-67
2023/08/23 14:09:04;;;;;;;7.63;6.82;;;;;;;;;;6313606;28;20059;-67
2023/08/23 14:12:06;;;;;;;7.68;6.97;;;;;;;;;;6312651;28;20411;-67
2023/08/23 14:15:09;;;;;;;6.65;4.95;;;;;;;;;;6315297;28;20205;-67
2023/08/23 14:18:11;;;;;;;8.10;6.68;;;;;;;;;;6315275;28;20612;-67
2023/08/23 14:21:13;;;;;;;7.20;6.50;;;;;;;;;;6311136;28;20120;-67
2023/08/23 14:24:15;;;;;;;7.28;6.57;;;;;;;;;;6313435;28;20036;-67
2023/08/23 14:27:17;;;;;;;9.45;8.65;;;;;;;;;;6300077;28;20173;-67
2023/08/23 14:30:20;;;;;;;8.90;7.38;;;;;;;;;;6313912;28;20056;-65
2023/08/23 14:33:22;;;;;;;8.00;6.57;;;;;;;;;;6313009;28;20828;-65
2023/08/23 14:36:24;;;;;;;8.57;7.75;;;;;;;;;;6313109;28;20040;-65
2023/08/23 14:39:26;;;;;;;10.00;7.30;;;;;;;;;;6305296;28;20074;-66
2023/08/23 14:42:28;;;;;;;8.10;6.88;;;;;;;;;;6315004;28;20047;-66
2023/08/23 14:45:30;;;;;;;8.00;7.25;;;;;;;;;;6307095;28;20712;-66
2023/08/23 14:48:32;;;;;;;8.55;6.90;;;;;;;;;;6306434;28;20059;-66
2023/08/23 14:51:34;;;;;;;7.90;7.10;;;;;;;;;;6311603;28;20795;-66
2023/08/23 14:54:36;;;;;;;7.85;7.15;;;;;;;;;;6312164;28;20043;-66
2023/08/23 14:57:40;;;;;;;8.50;6.57;;;;;;;;;;6311356;28;20043;-67
2023/08/23 15:00:43;;;;;;;7.63;6.18;;;;;;;;;;6310222;28;20044;-67
2023/08/23 15:03:45;;;;;;;6.68;5.90;;;;;;;;;;6311929;28;20055;-67
2023/08/23 15:06:47;;;;;;;7.13;6.43;;;;;;;;;;6310772;28;20050;-67
2023/08/23 15:09:49;;;;;;;7.18;5.50;;;;;;;;;;6310099;28;20236;-66
2023/08/23 15:12:51;;;;;;;7.82;6.85;;;;;;;;;;6310993;28;20091;-66
2023/08/23 15:15:57;;;;;;;8.48;7.68;;;;;;;;;;6311730;28;20123;-66
2023/08/23 15:19:01;;;;;;;7.72;6.80;;;;;;;;;;6311635;28;20058;-66
2023/08/23 15:22:03;;;;;;;7.72;6.68;;;;;;;;;;6310010;28;20207;-66
2023/08/23 15:25:06;;;;;;;9.27;6.55;;;;;;;;;;6310577;28;20588;-67
2023/08/23 15:28:10;;;;;;;8.15;6.68;;;;;;;;;;6296013;28;20123;-66
2023/08/23 15:31:12;;;;;;;7.57;6.80;;;;;;;;;;6303315;28;20063;-67
2023/08/23 15:34:14;;;;;;;7.47;6.10;;;;;;;;;;6309400;28;20075;-66
2023/08/23 15:37:17;;;;;;;7.57;6.78;;;;;;;;;;6308969;28;20072;-67
2023/08/23 15:40:19;;;;;;;10.02;7.32;;;;;;;;;;6308884;28;20048;-71
2023/08/23 15:43:21;;;;;;;7.15;6.45;;;;;;;;;;6311323;28;20075;-65
2023/08/23 15:46:24;;;;;;;8.30;7.32;;;;;;;;;;6311878;28;20055;-66
2023/08/23 15:49:26;;;;;;;8.07;6.93;;;;;;;;;;6311878;28;20047;-67
2023/08/23 15:52:28;;;;;;;12.48;7.03;;;;;;;;;;6293533;28;20125;-66
2023/08/23 15:55:30;;;;;;;8.10;7.00;;;;;;;;;;6312250;28;20028;-66
2023/08/23 15:58:32;;;;;;;7.97;6.93;;;;;;;;;;6310884;28;20475;-67
2023/08/23 16:01:34;;;;;;;8.05;7.25;;;;;;;;;;6312617;28;20840;-66
2023/08/23 16:04:37;;;;;;;8.88;5.93;;;;;;;;;;6312283;28;20569;-66
2023/08/23 16:07:39;;;;;;;7.75;6.25;;;;;;;;;;6312690;28;20420;-66
2023/08/23 16:10:45;;;;;;;8.18;6.32;;;;;;;;;;6312912;28;20712;-65
2023/08/23 16:13:48;;;;;;;7.63;6.28;;;;;;;;;;6311778;28;20568;-67
2023/08/23 16:16:50;;;;;;;9.70;7.60;;;;;;;;;;6311973;28;20051;-65
2023/08/23 16:19:52;;;;;;;8.90;8.00;;;;;;;;;;6307220;28;20047;-67
2023/08/23 16:22:54;;;;;;;9.68;8.45;;;;;;;;;;6310149;28;20104;-65
2023/08/23 16:26:01;;;;;;;9.45;8.10;;;;;;;;;;6299759;28;20067;-66
2023/08/23 16:29:03;;;;;;;9.27;7.78;;;;;;;;;;6309032;28;20047;-66
2023/08/23 16:32:08;;;;;;;12.50;7.72;;;;;;;;;;6306354;28;20127;-66
2023/08/23 16:35:10;;;;;;;10.05;9.05;;;;;;;;;;6310607;28;20035;-65
2023/08/23 16:38:12;;;;;;;10.88;8.95;;;;;;;;;;6307629;28;20044;-67
2023/08/23 16:41:14;;;;;;;9.38;8.18;;;;;;;;;;6309409;28;20040;-65
2023/08/23 16:44:16;;;;;;;10.30;9.25;;;;;;;;;;6308933;28;20155;-67
2023/08/23 16:47:18;;;;;;;11.52;7.50;;;;;;;;;;6308278;28;20044;-67
2023/08/23 16:50:22;;;;;;;;;;;;;;;;;;6311638;28;20485;-66
2023/08/23 16:53:24;;;;;;;8.90;7.15;;;;;;;;;;6310952;28;19954;-66
2023/08/23 16:56:27;;;;;;;11.82;7.93;;;;;;;;;;6310322;28;20040;-66
2023/08/23 16:59:29;;;;;;;8.25;7.45;;;;;;;;;;6309977;28;20100;-66
2023/08/23 17:02:31;;;;;;;7.65;6.85;;;;;;;;;;6310681;28;20446;-65
2023/08/23 17:05:34;;;;;;;9.07;7.57;;;;;;;;;;6309802;28;20108;-66
2023/08/23 17:08:37;;;;;;;10.32;7.68;;;;;;;;;;6311166;28;20052;-66
2023/08/23 17:11:39;;;;;;;9.15;7.45;;;;;;;;;;6309835;28;20048;-66
2023/08/23 17:14:41;;;;;;;9.50;7.97;;;;;;;;;;6309890;28;20430;-66
2023/08/23 17:17:43;;;;;;;9.77;8.75;;;;;;;;;;6306471;28;20071;-65
2023/08/23 17:20:45;;;;;;;11.18;7.15;;;;;;;;;;6307377;28;20446;-66
2023/08/23 17:23:47;;;;;;;8.05;7.25;;;;;;;;;;6308222;28;20118;-66
2023/08/23 17:26:50;;;;;;;11.73;8.10;;;;;;;;;;6308957;28;20052;-66
2023/08/23 17:29:53;;;;;;;9.70;7.57;;;;;;;;;;6310445;28;20056;-66
2023/08/23 17:32:55;;;;;;;9.82;8.20;;;;;;;;;;6309651;28;20051;-66
2023/08/23 17:35:57;;;;;;;10.80;9.52;;;;;;;;;;6314096;28;20040;-65
2023/08/23 17:38:59;;;;;;;12.75;7.95;;;;;;;;;;6315377;28;20100;-65
2023/08/23 17:42:01;;;;;;;9.93;6.57;;;;;;;;;;6314128;28;20630;-66
2023/08/23 17:45:04;;;;;;;10.38;7.63;;;;;;;;;;6314627;28;20052;-65
2023/08/23 17:48:06;;;;;;;8.60;7.70;;;;;;;;;;6313875;28;20131;-66
2023/08/23 17:51:09;;;;;;;11.48;6.78;;;;;;;;;;6296809;28;20371;-66
2023/08/23 17:54:11;;;;;;;10.25;9.20;;;;;;;;;;6299981;28;20048;-67
2023/08/23 17:57:13;;;;;;;9.38;7.70;;;;;;;;;;6314773;28;20603;-66
2023/08/23 18:00:15;;;;;;;11.07;8.65;;;;;;;;;;6315167;28;20515;-66
2023/08/23 18:03:18;;;;;;;11.88;8.35;;;;;;;;;;6314595;28;20151;-66
2023/08/23 18:06:20;;;;;;;11.30;10.20;;;;;;;;;;6314651;28;20043;-66
2023/08/23 18:09:22;;;;;;;607.25;387.50;;;;;;;;;;6314718;28;20592;-65
2023/08/23 18:12:24;;;;;;;148.82;73.15;;;;;;;;;;6300459;28;20074;-66
2023/08/23 18:15:26;;;;;;;701.75;399.58;;;;;;;;;;6311446;28;20048;-65